Map

Track Data

SID SEASON NUMBER BASIN SUBBASIN NAME ISO_TIME NATURE LAT LON WMO_WIND WMO_PRES WMO_AGENCY TRACK_TYPE DIST2LAND LANDFALL IFLAG USA_AGENCY USA_ATCF_ID USA_LAT USA_LON USA_RECORD USA_STATUS USA_WIND USA_PRES USA_SSHS USA_R34_NE USA_R34_SE USA_R34_SW USA_R34_NW USA_R50_NE USA_R50_SE USA_R50_SW USA_R50_NW USA_R64_NE USA_R64_SE USA_R64_SW USA_R64_NW USA_POCI USA_ROCI USA_RMW USA_EYE TOKYO_LAT TOKYO_LON TOKYO_GRADE TOKYO_WIND TOKYO_PRES TOKYO_R50_DIR TOKYO_R50_LONG TOKYO_R50_SHORT TOKYO_R30_DIR TOKYO_R30_LONG TOKYO_R30_SHORT TOKYO_LAND CMA_LAT CMA_LON CMA_CAT CMA_WIND CMA_PRES HKO_LAT HKO_LON HKO_CAT HKO_WIND HKO_PRES NEWDELHI_LAT NEWDELHI_LON NEWDELHI_GRADE NEWDELHI_WIND NEWDELHI_PRES NEWDELHI_CI NEWDELHI_DP NEWDELHI_POCI REUNION_LAT REUNION_LON REUNION_TYPE REUNION_WIND REUNION_PRES REUNION_TNUM REUNION_CI REUNION_RMW REUNION_R34_NE REUNION_R34_SE REUNION_R34_SW REUNION_R34_NW REUNION_R50_NE REUNION_R50_SE REUNION_R50_SW REUNION_R50_NW REUNION_R64_NE REUNION_R64_SE REUNION_R64_SW REUNION_R64_NW BOM_LAT BOM_LON BOM_TYPE BOM_WIND BOM_PRES BOM_TNUM BOM_CI BOM_RMW BOM_R34_NE BOM_R34_SE BOM_R34_SW BOM_R34_NW BOM_R50_NE BOM_R50_SE BOM_R50_SW BOM_R50_NW BOM_R64_NE BOM_R64_SE BOM_R64_SW BOM_R64_NW BOM_ROCI BOM_POCI BOM_EYE BOM_POS_METHOD BOM_PRES_METHOD NADI_LAT NADI_LON NADI_CAT NADI_WIND NADI_PRES WELLINGTON_LAT WELLINGTON_LON WELLINGTON_WIND WELLINGTON_PRES DS824_LAT DS824_LON DS824_STAGE DS824_WIND DS824_PRES TD9636_LAT TD9636_LON TD9636_STAGE TD9636_WIND TD9636_PRES TD9635_LAT TD9635_LON TD9635_WIND TD9635_PRES TD9635_ROCI NEUMANN_LAT NEUMANN_LON NEUMANN_CLASS NEUMANN_WIND NEUMANN_PRES MLC_LAT MLC_LON MLC_CLASS MLC_WIND MLC_PRES USA_GUST BOM_GUST BOM_GUST_PER REUNION_GUST REUNION_GUST_PER USA_SEAHGT USA_SEARAD_NE USA_SEARAD_SE USA_SEARAD_SW USA_SEARAD_NW STORM_SPEED STORM_DIR
2001031S13072 2001 4 SI MM NOT_NAMED 2001-01-30 12:00:00 TS -13.1000 71.5000 25 1000 reunion main 1665 1659 _____O________ -1 -13.1000 71.5000 2 25 1000 1.50000 1.50000 3 196
2001031S13072 2001 4 SI MM NOT_NAMED 2001-01-30 15:00:00 TS -13.2525 71.4600 main 1654 1639 _____P________ -1 -13.2525 71.4600 2 25 1000 3 197
2001031S13072 2001 4 SI MM NOT_NAMED 2001-01-30 18:00:00 TS -13.4000 71.4000 25 1000 reunion main 1639 1624 _____O________ -1 -13.4000 71.4000 2 25 1000 1.50000 1.50000 3 207
2001031S13072 2001 4 SI MM NOT_NAMED 2001-01-30 21:00:00 TS -13.5425 71.3075 main 1624 1604 _____P________ -1 -13.5425 71.3075 2 25 1000 4 213
2001031S13072 2001 4 SI MM NOT_NAMED 2001-01-31 00:00:00 TS -13.7000 71.2000 25 1000 reunion main 1604 1583 _____O________ -1 -13.7000 71.2000 2 25 1000 1.50000 1.50000 4 207
2001031S13072 2001 4 SI MM NOT_NAMED 2001-01-31 03:00:00 TS -13.8624 71.1373 main 1583 1563 _____P________ -1 -13.8624 71.1373 2 25 999 4 206
2001031S13072 2001 4 SI MM NOT_NAMED 2001-01-31 06:00:00 TS -14.1000 71.0000 25 999 reunion main 1563 1514 _____O________ -1 -14.1000 71.0000 2 25 999 1.50000 1.50000 8 216
2001031S13072 2001 4 SI MM NOT_NAMED 2001-01-31 09:00:00 TS -14.4927 70.6579 main 1514 1455 _____P________ -1 -14.4927 70.6579 2 25 998 11 220
2001031S13072 2001 4 SI MM NOT_NAMED 2001-01-31 12:00:00 TS -14.9000 70.3000 25 998 reunion main 1455 1421 _____O________ -1 -14.9000 70.3000 2 25 998 1.50000 1.50000 9 217
2001031S13072 2001 4 SI MM NOT_NAMED 2001-01-31 15:00:00 TS -15.1874 70.1198 main 1421 1402 _____P________ -1 -15.1874 70.1198 2 25 997 6 210
2001031S13072 2001 4 SI MM NOT_NAMED 2001-01-31 18:00:00 TS -15.4000 70.0000 25 997 reunion main 1402 1387 _____O________ -1 -15.4000 70.0000 2 25 997 2.00000 2.00000 5 216
2001031S13072 2001 4 SI MM NOT_NAMED 2001-01-31 21:00:00 TS -15.5575 69.8425 main 1373 1359 _____P________ -1 -15.5575 69.8425 2 25 997 4 224
2001031S13072 2001 4 SI MM NOT_NAMED 2001-02-01 00:00:00 TS -15.7000 69.7000 25 997 reunion main 1359 1340 _____O________ -1 -15.7000 69.7000 2 25 997 2.00000 2.00000 4 216
2001031S13072 2001 4 SI MM NOT_NAMED 2001-02-01 03:00:00 TS -15.8700 69.6074 main 1340 1321 _____P________ -1 -15.8700 69.6074 2 27 996 4 206
2001031S13072 2001 4 SI MM NOT_NAMED 2001-02-01 06:00:00 TS -16.1000 69.5000 30 996 reunion main 1321 1293 _____O________ -1 -16.1000 69.5000 2 30 996 2.50000 2.50000 6 211
2001031S13072 2001 4 SI MM NOT_NAMED 2001-02-01 09:00:00 TS -16.3676 69.3000 main 1289 1253 _____P________ -1 -16.3676 69.3000 2 30 996 8 209
2001031S13072 2001 4 SI MM NOT_NAMED 2001-02-01 12:00:00 TS -16.8000 69.1000 30 996 reunion main 1253 1222 _____O________ -1 -16.8000 69.1000 2 30 996 2.00000 2.50000 11 194
2001031S13072 2001 4 SI MM NOT_NAMED 2001-02-01 15:00:00 TS -17.4675 69.0070 main 1218 1185 _____P________ -1 -17.4675 69.0070 2 30 996 15 187
2001031S13072 2001 4 SI MM NOT_NAMED 2001-02-01 18:00:00 TS -18.3000 68.9000 30 996 reunion main 1185 1147 _____O________ -1 -18.3000 68.9000 2 30 996 2.00000 2.50000 18 190
2001031S13072 2001 4 SI MM NOT_NAMED 2001-02-01 21:00:00 TS -19.2301 68.6655 main 1147 1106 _____P________ -1 -19.2301 68.6655 2 30 996 19 195
2001031S13072 2001 4 SI MM NOT_NAMED 2001-02-02 00:00:00 TS -20.1000 68.4000 30 996 reunion main 1106 1083 _____O________ -1 -20.1000 68.4000 2 30 996 9.90000 15 197
2001031S13072 2001 4 SI MM NOT_NAMED 2001-02-02 03:00:00 TS -20.6799 68.1994 main 1083 1064 _____P________ -1 -20.6799 68.1994 2 30 996 12 199
2001031S13072 2001 4 SI MM NOT_NAMED 2001-02-02 06:00:00 TS -21.2000 68.0000 30 996 reunion main 1065 1040 _____O________ -1 -21.2000 68.0000 2 30 996 9.90000 13 200
2001031S13072 2001 4 SI MM NOT_NAMED 2001-02-02 09:00:00 TS -21.8851 67.7205 main 1042 1031 _____P________ -1 -21.8851 67.7205 2 30 996 15 198
2001031S13072 2001 4 SI MM NOT_NAMED 2001-02-02 12:00:00 TS -22.6000 67.5000 30 996 reunion main 1035 1033 _____O________ -1 -22.6000 67.5000 2 30 996 9.90000 14 191
2001031S13072 2001 4 SI MM NOT_NAMED 2001-02-02 15:00:00 TS -23.2424 67.4398 main 1042 1042 _____P________ -1 -23.2424 67.4398 2 30 995 13 179
2001031S13072 2001 4 SI MM NOT_NAMED 2001-02-02 18:00:00 TS -23.9000 67.5000 30 995 reunion main 1076 1076 _____O________ -1 -23.9000 67.5000 2 30 995 9.90000 14 174
2001031S13072 2001 4 SI MM NOT_NAMED 2001-02-02 21:00:00 TS -24.6199 67.5906 main 1114 1114 _____P________ -1 -24.6199 67.5906 2 30 995 15 170
2001031S13072 2001 4 SI MM NOT_NAMED 2001-02-03 00:00:00 TS -25.4000 67.8000 30 995 reunion main 1169 1169 _____O________ -1 -25.4000 67.8000 2 30 995 9.90000 17 163
2001031S13072 2001 4 SI MM NOT_NAMED 2001-02-03 03:00:00 TS -26.2275 68.1477 main 1236 1236 _____P________ -1 -26.2275 68.1477 2 32 993 19 157
2001031S13072 2001 4 SI MM NOT_NAMED 2001-02-03 06:00:00 ET -27.1000 68.6000 35 992 reunion main 1330 1330 _____O________ -1 -27.1000 68.6000 5 35 992 9.90000 20 154
2001031S13072 2001 4 SI MM NOT_NAMED 2001-02-03 09:00:00 ET -28.0153 69.1217 main 1425 1425 _____P________ -1 -28.0153 69.1217 5 35 991 20 154
2001031S13072 2001 4 SI MM NOT_NAMED 2001-02-03 12:00:00 ET -28.9000 69.6000 35 990 reunion main 1522 1522 _____O________ -1 -28.9000 69.6000 5 35 990 9.90000 19 158
2001031S13072 2001 4 SI MM NOT_NAMED 2001-02-03 15:00:00 ET -29.7697 69.9477 main 1605 1605 _____P________ -1 -29.7697 69.9477 5 37 988 16 164
2001031S13072 2001 4 SI MM NOT_NAMED 2001-02-03 18:00:00 ET -30.4000 70.1000 40 987 reunion main 1662 1662 _____O________ -1 -30.4000 70.1000 5 40 987 9.90000 8 176
2001031S13072 2001 4 SI MM NOT_NAMED 2001-02-03 21:00:00 ET -30.5974 70.0180 main 1668 1654 _____P________ -1 -30.5974 70.0180 5 42 986 3 233
2001031S13072 2001 4 SI MM NOT_NAMED 2001-02-04 00:00:00 ET -30.6000 69.8000 45 985 reunion main 1654 1647 _____O________ -1 -30.6000 69.8000 5 45 985 9.90000 4 256
2001031S13072 2001 4 SI MM NOT_NAMED 2001-02-04 03:00:00 ET -30.6850 69.5999 main 1647 1639 _____P________ -1 -30.6850 69.5999 5 45 985 4 240
2001031S13072 2001 4 SI MM NOT_NAMED 2001-02-04 06:00:00 ET -30.8000 69.4000 45 985 reunion main 1640 1633 _____O________ -1 -30.8000 69.4000 5 45 985 9.90000 4 228
2001031S13072 2001 4 SI MM NOT_NAMED 2001-02-04 09:00:00 ET -30.9775 69.2276 main 1641 1641 _____P________ -1 -30.9775 69.2276 5 42 986 5 213
2001031S13072 2001 4 SI MM NOT_NAMED 2001-02-04 12:00:00 ET -31.2000 69.1000 40 987 reunion main 1649 1649 _____O________ -1 -31.2000 69.1000 5 40 987 9.90000 5 199
2001031S13072 2001 4 SI MM NOT_NAMED 2001-02-04 15:00:00 ET -31.4425 69.0349 main 1658 1658 _____P________ -1 -31.4425 69.0349 5 40 987 5 190
2001031S13072 2001 4 SI MM NOT_NAMED 2001-02-04 18:00:00 ET -31.7000 69.0000 40 988 reunion main 1681 1681 _____O________ -1 -31.7000 69.0000 5 40 988 9.90000 5 190
2001031S13072 2001 4 SI MM NOT_NAMED 2001-02-04 21:00:00 ET -31.9200 68.9425 main 1691 1691 _____P________ -1 -31.9200 68.9425 5 37 989 5 190
2001031S13072 2001 4 SI MM NOT_NAMED 2001-02-05 00:00:00 ET -32.2000 68.9000 35 990 reunion main 1715 1715 _____O________ -1 -32.2000 68.9000 5 35 990 9.90000 7 188
2001031S13072 2001 4 SI MM NOT_NAMED 2001-02-05 03:00:00 ET -32.6197 68.8260 main 1741 1741 _____P________ -1 -32.6197 68.8260 5 35 991 9 0
2001031S13072 2001 4 SI MM NOT_NAMED 2001-02-05 06:00:00 ET -33.1000 68.9000 35 992 reunion main 1746 1702 _____O________ -1 -33.1000 68.9000 5 35 992 9.90000 10 158
2001031S13072 2001 4 SI MM NOT_NAMED 2001-02-05 09:00:00 ET -33.5427 69.2747 main 1702 1647 _____P________ -1 -33.5427 69.2747 5 32 993 12 140
2001031S13072 2001 4 SI MM NOT_NAMED 2001-02-05 12:00:00 ET -34.0000 69.8000 30 995 reunion main 1647 1594 _____O________ -1 -34.0000 69.8000 5 30 995 9.90000 13 138
2001031S13072 2001 4 SI MM NOT_NAMED 2001-02-05 15:00:00 ET -34.5000 70.3001 main 1594 1542 _____P________ -1 -34.5000 70.3001 5 30 995 13 140
2001031S13072 2001 4 SI MM NOT_NAMED 2001-02-05 18:00:00 ET -35.0000 70.8000 30 996 reunion main 1542 1501 _____O________ -1 -35.0000 70.8000 5 30 996 9.90000 13 140
2001031S13072 2001 4 SI MM NOT_NAMED 2001-02-05 21:00:00 ET -35.4725 71.2802 main 1491 1451 _____P________ -1 -35.4725 71.2802 5 30 997 12 141
2001031S13072 2001 4 SI MM NOT_NAMED 2001-02-06 00:00:00 ET -35.9000 71.7000 30 998 reunion main 1451 1420 _____O________ -1 -35.9000 71.7000 5 30 998 9.90000 10 143
2001031S13072 2001 4 SI MM NOT_NAMED 2001-02-06 03:00:00 ET -36.2646 72.0085 main 1411 1382 _____P________ -1 -36.2646 72.0085 5 30 998 9 145
2001031S13072 2001 4 SI MM NOT_NAMED 2001-02-06 06:00:00 ET -36.6000 72.3000 30 998 reunion main 1382 1354 _____O________ -1 -36.6000 72.3000 5 30 998 9.90000 9 142
2001031S13072 2001 4 SI MM NOT_NAMED 2001-02-06 09:00:00 ET -36.9455 72.6713 main 1356 1320 _____P________ -1 -36.9455 72.6713 5 30 998 9 138
2001031S13072 2001 4 SI MM NOT_NAMED 2001-02-06 12:00:00 ET -37.3000 73.1000 30 998 reunion main 1320 _____O________ -1 -37.3000 73.1000 5 30 998 9.90000 10 136

About IBTrACS Database

This database is a web-friendly format of International Best Track Archive for Climate Stewardship (IBTrACS), a global best track data archive curated by NOAA dating back to 1842.

Updated: 2021-10-21